• Join FlightAware (Why Join?)
  • Login
  • US Flag 
08:09PM EDT


 

Airport Tracker/Info


-or-


 

Live Flight TrackerFlight Track Log ✈ EJA922 ✈ 18-Jul-2013 ✈ KASE - KDTW

Flight Track Log - Related Links

Times and Time Zones

All times are in EDT time to prevent confusion due to time zone crossing. See the EJA922 flight status page for this flight to view local times or setup timezone preferences in your user account.

Time Position Orientation Groundspeed Altitude Reporting Facility
EDT Latitude Longitude Course Direction KTS MPH feet Rate Location/Type
02:49PM 39.2733 -106.8933 287° West 287 330 9,900  Level Denver Center
02:50PM 39.2983 -107.0014 287° West 279 321 12,900 2,460 Climbing Denver Center
02:51PM 39.3792 -107.1206 311° West 367 422 15,500 2,400 Climbing Denver Center
02:52PM 39.4814 -107.1061 North 382 440 17,900 1,980 Climbing Denver Center
02:53PM 39.5694 -107.0375 31° Northeast 386 444 19,700 2,160 Climbing Denver Center
02:54PM 39.6778 -106.9789 23° Northeast 389 448 22,500 2,400 Climbing Denver Center
02:55PM 39.7819 -106.9478 13° North 376 433 24,700 1,800 Climbing Denver Center
02:56PM 39.8636 -106.9239 13° North 375 432 26,200 1,740 Climbing Denver Center
02:57PM 39.9900 -106.8447 26° Northeast 384 442 28,400 1,680 Climbing Denver Center
02:58PM 40.0556 -106.7711 41° Northeast 386 444 29,700 1,560 Climbing Denver Center
02:59PM 40.1639 -106.6481 41° Northeast 403 464 31,700 1,680 Climbing Denver Center
03:00PM 40.1761 -106.5075 83° East 406 467 33,300 1,380 Climbing Denver Center
03:01PM 40.1233 -106.3719 117° Southeast 417 480 34,600 780 Climbing Denver Center
03:02PM 40.0806 -106.2600 117° Southeast 428 493 35,000 180 Climbing Denver Center
03:04PM 40.0300 -106.0667 109° East 471 542 35,000  Level Denver Center
03:05PM 40.0008 -105.8903 102° East 494 568 35,000  Level Denver Center
03:06PM 39.9744 -105.6678 99° East 512 589 35,000  Level Denver Center
03:07PM 39.9494 -105.4842 100° East 512 589 35,000  Level Denver Center
03:08PM 39.9250 -105.3014 100° East 511 588 35,000  Level Denver Center
03:09PM 39.9011 -105.1178 100° East 508 585 35,000  Level Denver Center
03:10PM 39.8703 -104.8981 100° East 513 590 35,000 120 Level Denver Center
03:11PM 39.8472 -104.7158 99° East 506 582 35,400 960 Climbing Denver Center
03:12PM 39.8225 -104.5364 100° East 501 577 37,000 1,380 Climbing Denver Center
03:13PM 39.7906 -104.3211 101° East 503 579 38,300 960 Climbing Denver Center
03:14PM 39.7667 -104.1525 100° East 490 564 39,000 300 Climbing Denver Center
03:15PM 39.7408 -103.9753 101° East 491 565 39,000  Level Denver Center
03:16PM 39.7164 -103.7986 100° East 491 565 39,000 300 Level Denver Center
03:17PM 39.6900 -103.6219 101° East 491 565 39,700 600 Climbing Denver Center
03:18PM 39.6689 -103.4817 101° East 496 571 40,300 600 Climbing Denver Center
03:19PM 39.6381 -103.2753 101° East 487 560 41,000 300 Climbing Denver Center
03:20PM 39.6058 -103.0667 101° East 491 565 41,000  Level Denver Center
03:21PM 39.5792 -102.8911 101° East 496 571 41,100 360 Climbing Denver Center
03:22PM 39.5814 -102.7183 89° East 485 558 41,800 540 Climbing Denver Center
03:23PM 39.5958 -102.5458 84° East 482 555 42,300 540 Climbing Denver Center
03:24PM 39.6119 -102.3467 84° East 481 554 43,000 600 Climbing Denver Center
03:25PM 39.6264 -102.1836 83° East 478 550 43,600 600 Climbing Denver Center
03:26PM 39.6411 -101.9933 84° East 475 547 44,300 600 Climbing Denver Center
03:28PM 39.6542 -101.8308 84° East 474 545 44,900 300 Climbing Denver Center
03:29PM 39.6669 -101.6711 84° East 468 539 45,000  Climbing Denver Center
03:30PM 39.6800 -101.4883 85° East 457 526 45,000  Level Denver Center
03:31PM 39.6908 -101.3317 85° East 457 526 45,000  Level Denver Center
03:32PM 39.7042 -101.1553 84° East 444 511 45,000  Level Denver Center
03:33PM 39.7147 -101.0022 85° East 445 512 45,000  Level Denver Center
03:34PM 39.7267 -100.8258 85° East 442 509 45,000  Level Denver Center
03:35PM 39.7369 -100.6728 85° East 445 512 45,000 180 Level Denver Center
03:36PM 39.7489 -100.4933 85° East 447 514 45,400 360 Climbing Denver Center
03:37PM 39.7592 -100.3397 85° East 448 516 45,800 240 Climbing Denver Center
03:38PM 39.7708 -100.1583 85° East 452 520 46,000 300 Climbing Denver Center
03:39PM 39.7825 -99.9717 85° East 460 529 46,600 480 Climbing Denver Center
03:40PM 39.7942 -99.7722 86° East 461 531 47,000 180 Climbing Denver Center
03:41PM 39.8036 -99.6025 86° East 469 540 47,000  Level Denver Center
03:42PM 39.8108 -99.4667 86° East 471 542 47,000  Level Denver Center
03:43PM 39.8239 -99.2611 85° East 476 548 47,000  Level Denver Center
03:44PM 39.8322 -99.0878 86° East 481 554 47,000  Level Denver Center
03:45PM 39.8397 -98.9503 86° East 479 551 47,000  Level Denver Center
03:46PM 39.8489 -98.7825 86° East 478 550 47,000  Level Minneapolis Center
03:47PM 39.8572 -98.6097 86° East 479 551 47,000  Level Minneapolis Center
03:48PM 39.8653 -98.4372 86° East 480 552 47,000  Level Minneapolis Center
03:49PM 39.8747 -98.2303 87° East 479 551 47,000  Level Minneapolis Center
03:50PM 39.8825 -98.0603 87° East 475 547 47,000  Level Minneapolis Center
03:51PM 39.8897 -97.8886 87° East 476 548 47,000  Level Minneapolis Center
03:52PM 39.8981 -97.7167 86° East 477 549 47,000  Level Minneapolis Center
03:53PM 39.9056 -97.5111 87° East 475 547 47,000  Level Minneapolis Center
03:55PM 39.9117 -97.3403 87° East 474 545 47,000  Level Minneapolis Center
03:56PM 39.9203 -97.1344 87° East 470 541 47,000  Level Minneapolis Center
03:57PM 39.9261 -96.9642 87° East 471 542 47,000  Level Minneapolis Center
03:58PM 39.9317 -96.7947 87° East 471 542 47,000  Level Minneapolis Center
03:59PM 39.9372 -96.6250 88° East 471 542 47,000  Level Minneapolis Center
04:00PM 39.9433 -96.4197 88° East 473 544 47,000  Level Minneapolis Center
04:01PM 39.9492 -96.2506 87° East 470 541 47,000  Level Kansas City Center
04:02PM 39.9556 -96.0714 87° East 474 545 47,000  Level Kansas City Center
04:03PM 39.9603 -95.8794 88° East 474 545 47,000  Level Kansas City Center
04:04PM 39.9650 -95.7167 88° East 471 542 47,000  Level Kansas City Center
04:05PM 39.9689 -95.5489 88° East 478 550 47,000  Level Kansas City Center
04:06PM 39.9725 -95.3578 89° East 471 542 47,000  Level Kansas City Center
04:07PM 39.9761 -95.1931 88° East 473 544 47,000  Level Kansas City Center
04:08PM 39.9792 -95.0006 89° East 473 544 47,000  Level Kansas City Center
04:09PM 39.9819 -94.8356 89° East 474 545 47,000  Level Kansas City Center
04:10PM 39.9856 -94.6428 89° East 474 545 47,000  Level Kansas City Center
04:11PM 39.9872 -94.4767 89° East 476 548 47,000  Level Kansas City Center
04:12PM 39.9897 -94.2836 89° East 476 548 47,000  Level Kansas City Center
04:13PM 39.9917 -94.1181 89° East 476 548 47,000  Level Kansas City Center
04:15PM 39.9840 -93.9177 93° East  Level FlightAware Approximate
04:15PM 39.9933 -93.7600 93° East 479 551 47,000  Level Kansas City Center
04:16PM 39.9933 -93.5875 90° East 480 552 47,000  Level Kansas City Center
04:17PM 39.9964 -93.4161 89° East 480 552 47,000  Level Kansas City Center
04:18PM 39.9961 -93.2111 90° East 477 549 47,000  Level Kansas City Center
04:20PM 39.9969 -93.0403 90° East 478 550 47,000  Level Kansas City Center
04:21PM 39.9975 -92.8686 90° East 480 552 47,000  Level Kansas City Center
04:22PM 39.9961 -92.6989 91° East 479 551 47,000  Level Kansas City Center
04:23PM 39.9967 -92.4939 90° East 482 555 47,000  Level Kansas City Center
04:24PM 39.9956 -92.3225 90° East 482 555 47,000  Level Kansas City Center
04:25PM 39.9956 -92.1517 90° East 481 554 47,000  Level Kansas City Center
04:26PM 39.9942 -91.9800 91° East 481 554 47,000  Level Kansas City Center
04:27PM 39.9919 -91.7761 91° East 477 549 47,000  Level Kansas City Center
04:28PM 39.9906 -91.6028 91° East 480 552 47,000  Level Kansas City Center
04:29PM 39.9889 -91.4322 91° East 478 550 47,000  Level Kansas City Center
04:30PM 39.9850 -91.2611 92° East 477 549 47,000  Level Kansas City Center
04:31PM 39.9839 -91.0892 90° East 478 550 47,000  Level Kansas City Center
04:32PM 39.9806 -90.9064 91° East 478 550 47,000  Level Kansas City Center
04:33PM 39.9772 -90.7331 91° East 479 551 47,000  Level Kansas City Center
04:34PM 39.9739 -90.5278 91° East 477 549 47,000  Level Kansas City Center
04:35PM 39.9697 -90.3553 92° East 477 549 47,000  Level Kansas City Center
04:36PM 39.9658 -90.1825 92° East 479 551 47,000  Level Kansas City Center
04:37PM 39.9619 -90.0089 92° East 481 554 47,000  Level Kansas City Center
04:38PM 39.9569 -89.8367 92° East 481 554 47,000  Level Kansas City Center
04:39PM 39.9511 -89.6289 92° East 480 552 47,000  Level Kansas City Center
04:40PM 39.9467 -89.4575 92° East 477 549 47,000  Level Kansas City Center
04:41PM 39.9414 -89.2847 92° East 479 551 47,000  Level Kansas City Center
04:42PM 39.9356 -89.1108 92° East 481 554 47,000  Level Kansas City Center
04:43PM 39.9317 -89.0072 93° East 484 557 47,000  Level Chicago Center
04:44PM 39.9247 -88.7972 92° East 485 558 47,000  Level Chicago Center
04:45PM 39.9192 -88.6214 92° East 488 562 47,000  Level Chicago Center
04:46PM 39.9119 -88.4444 93° East 490 564 47,000  Level Chicago Center
04:47PM 39.9042 -88.2683 93° East 488 562 47,000 -180 Level Chicago Center
04:48PM 39.9006 -88.0942 91° East 488 562 46,700 -1,140 Descending Chicago Center
04:49PM 39.9531 -87.9331 67° East 489 563 44,700 -2,280 Descending Chicago Center
04:50PM 40.0297 -87.7369 63° Northeast 501 577 41,900 -2,280 Descending Indianapolis Center
04:51PM 40.0947 -87.5681 63° Northeast 519 597 39,900 -2,040 Descending Indianapolis Center
04:52PM 40.1600 -87.4017 63° Northeast 519 597 37,900 -2,040 Descending Chicago Center
04:53PM 40.2242 -87.2344 63° Northeast 517 595 35,900 -1,920 Descending Chicago Center
04:54PM 40.2911 -87.0606 63° Northeast 528 608 34,000 -1,440 Descending Chicago Center
04:55PM 40.3594 -86.8797 64° Northeast 547 629 33,000 -480 Descending Chicago Center
04:56PM 40.4414 -86.6625 64° Northeast 551 634 33,000  Level Chicago Center
04:57PM 40.5089 -86.4833 64° Northeast 548 631 33,000  Level Chicago Center
04:58PM 40.5767 -86.3031 64° Northeast 547 629 33,000  Level Chicago Center
04:59PM 40.6414 -86.1233 65° Northeast 544 626 33,000 -120 Level Chicago Center
05:00PM 40.7064 -85.9467 64° Northeast 545 627 32,800 -1,800 Descending Chicago Center
05:02PM 40.7833 -85.7356 64° Northeast 537 618 29,400 -3,120 Descending Chicago Center
05:03PM 40.8447 -85.5642 65° Northeast 522 601 26,400 -2,700 Descending Chicago Center
05:04PM 40.9053 -85.3953 65° Northeast 514 592 23,900 -1,800 Descending Chicago Center
05:05PM 40.9614 -85.2353 65° Northeast 491 565 22,700 -1,200 Descending Chicago Center
05:06PM 41.0503 -85.1089 47° Northeast 478 550 21,400 -840 Descending Chicago Center
05:07PM 41.1756 -84.9764 39° Northeast 482 555 21,000 -240 Descending Chicago Center
05:08PM 41.2767 -84.8672 39° Northeast 475 547 21,000  Level Chicago Center
05:09PM 41.3775 -84.7592 39° Northeast 471 542 21,000 -60 Level Chicago Center
05:10PM 41.4781 -84.6519 39° Northeast 468 539 20,900 -1,080 Descending Chicago Center
05:11PM 41.5797 -84.5403 39° Northeast 475 547 18,800 -2,100 Descending Chicago Center
05:12PM 41.6767 -84.4256 41° Northeast 460 529 17,000 -2,040 Descending Cleveland Center
05:13PM 41.7378 -84.2817 60° Northeast 440 506 15,100 -1,920 Descending Cleveland Center
05:13PM 41.7608 -84.2078 67° East 437 503 14,100 -1,920 Descending Cleveland Center
05:14PM 41.8083 -84.0878 62° Northeast 426 490 12,600 -1,440 Descending Cleveland Center
05:15PM 41.8397 -84.0172 59° Northeast 422 486 12,000 -360 Descending Cleveland Center
05:16PM 41.9036 -83.9033 53° Northeast 399 459 12,000  Level Cleveland Center
05:17PM 41.9628 -83.7975 53° Northeast 370 426 12,000  Level Cleveland Center
05:18PM 41.9850 -83.6700 77° East 345 397 12,000  Level Cleveland Center
05:18PM 41.9811 -83.5806 93° East 368 423 12,000  Level Cleveland Center
05:19PM 41.9911 -83.5167 78° East 349 402 12,000 -300 Level Cleveland Center
05:19PM 42.0158 -83.4508 63° Northeast 382 440 11,700 -660 Descending Cleveland Center
05:20PM 42.0689 -83.3272 60° Northeast 402 463 11,000 -420 Descending Cleveland Center
05:21PM 42.1328 -83.2739 32° Northeast 274 315 11,000 -600 Level Cleveland Center
05:22PM 42.1603 -83.2556 26° Northeast 285 328 10,200 -1,980 Descending Cleveland Center
05:23PM 42.2281 -83.2078 28° Northeast 259 298 8,000 -1,200 Descending Cleveland Center
05:24PM 42.2781 -83.1200 52° Northeast 235 270 7,500 -1,260 Descending Cleveland Center
05:25PM 42.3372 -83.0775 28° Northeast 248 285 5,200 -1,740 Descending Cleveland Center
05:26PM 42.3422 -83.1311 277° West 160 184 4,000 -1,200 Descending Cleveland Center